createdAt,value
2022-10-15T00:00:00.107Z,16.73
2022-10-15T00:02:29.891Z,17.93
2022-10-15T00:05:01.417Z,18.27
2022-10-15T00:07:31.459Z,15.50
2022-10-15T00:10:01.714Z,15.80
2022-10-15T00:12:32.298Z,16.53
2022-10-15T00:15:00.314Z,15.67
2022-10-15T00:17:27.955Z,14.90
2022-10-15T00:19:58.973Z,14.63
2022-10-15T00:22:29.974Z,17.50
2022-10-15T00:25:01.466Z,16.03
2022-10-15T00:27:30.403Z,14.97
2022-10-15T00:30:00.096Z,15.63
2022-10-15T00:32:31.286Z,15.17
2022-10-15T00:35:00.710Z,16.57
2022-10-15T00:37:30.283Z,15.57
2022-10-15T00:40:07.741Z,18.13
2022-10-15T00:42:40.174Z,15.83
2022-10-15T00:45:21.192Z,19.03
2022-10-15T00:47:51.721Z,19.67
2022-10-15T00:50:30.181Z,16.13
2022-10-15T00:53:09.305Z,18.10
2022-10-15T00:55:42.578Z,14.90
2022-10-15T00:58:20.474Z,14.80
2022-10-15T01:00:51.144Z,17.73
2022-10-15T01:03:30.199Z,17.30
2022-10-15T01:06:00.731Z,18.67
2022-10-15T01:08:31.580Z,17.67
2022-10-15T01:11:22.114Z,16.93
2022-10-15T01:14:01.906Z,20.53
2022-10-15T01:16:40.218Z,18.13
2022-10-15T01:19:42.697Z,19.63
2022-10-15T01:22:20.759Z,17.27
2022-10-15T01:25:10.287Z,19.10
2022-10-15T01:27:48.912Z,15.63
2022-10-15T01:30:27.070Z,17.97
2022-10-15T01:33:28.959Z,16.67
2022-10-15T01:36:19.064Z,18.17
2022-10-15T01:38:59.990Z,22.03
2022-10-15T01:41:39.088Z,17.87
2022-10-15T01:44:18.068Z,18.20
2022-10-15T01:46:59.138Z,17.13
2022-10-15T01:49:41.900Z,16.83
2022-10-15T01:52:20.462Z,16.17
2022-10-15T01:55:00.560Z,17.90
2022-10-15T01:57:40.672Z,18.40
2022-10-15T02:00:11.749Z,17.17
2022-10-15T02:02:42.288Z,17.53
2022-10-15T02:05:22.157Z,17.57
2022-10-15T02:08:11.066Z,19.97
2022-10-15T02:10:49.124Z,18.00
2022-10-15T02:13:30.285Z,17.20
2022-10-15T02:16:09.316Z,20.90
2022-10-15T02:18:50.458Z,19.17
2022-10-15T02:21:24.737Z,17.70
2022-10-15T02:24:00.202Z,15.40
2022-10-15T02:26:32.373Z,18.00
2022-10-15T02:29:02.074Z,16.27
2022-10-15T02:31:38.081Z,18.37
2022-10-15T02:34:21.333Z,17.77
2022-10-15T02:36:50.740Z,16.67
2022-10-15T02:39:29.010Z,18.23
2022-10-15T02:42:02.239Z,18.13
2022-10-15T02:44:32.756Z,18.13
2022-10-15T02:47:10.719Z,16.70
2022-10-15T02:49:40.789Z,18.37
2022-10-15T02:52:10.832Z,17.33
2022-10-15T02:54:40.347Z,18.20
2022-10-15T02:57:10.503Z,15.13
2022-10-15T02:59:40.698Z,16.80
2022-10-15T03:02:14.037Z,19.07
2022-10-15T03:04:49.755Z,16.67
2022-10-15T03:07:20.791Z,17.90
2022-10-15T03:09:50.589Z,15.33
2022-10-15T03:12:25.045Z,18.40
2022-10-15T03:14:56.979Z,15.20
2022-10-15T03:17:29.226Z,18.80
2022-10-15T03:20:00.607Z,14.77
2022-10-15T03:22:31.322Z,16.87
2022-10-15T03:25:01.979Z,19.13
2022-10-15T03:27:30.893Z,16.50
2022-10-15T03:30:00.773Z,17.40
2022-10-15T03:32:33.046Z,15.47
2022-10-15T03:35:09.430Z,17.50
2022-10-15T03:37:39.340Z,18.43
2022-10-15T03:40:13.757Z,14.87
2022-10-15T03:42:47.784Z,15.87
2022-10-15T03:45:19.770Z,15.37
2022-10-15T03:47:49.697Z,17.33
2022-10-15T03:50:23.019Z,18.20
2022-10-15T03:52:50.895Z,17.73
2022-10-15T03:55:19.611Z,15.73
2022-10-15T03:57:50.901Z,15.20
2022-10-15T04:00:18.802Z,16.43
2022-10-15T04:02:49.606Z,15.53
2022-10-15T04:05:22.601Z,13.47
2022-10-15T04:07:50.942Z,15.83
2022-10-15T04:10:20.940Z,18.27
2022-10-15T04:12:52.611Z,17.17
2022-10-15T04:15:20.767Z,16.33
2022-10-15T04:17:57.780Z,15.30
2022-10-15T04:20:29.758Z,15.90
2022-10-15T04:23:00.758Z,14.23
2022-10-15T04:25:31.970Z,15.40
2022-10-15T04:27:59.699Z,16.03
2022-10-15T04:30:29.505Z,17.63
2022-10-15T04:32:59.590Z,16.33
2022-10-15T04:35:38.324Z,16.40
2022-10-15T04:38:12.495Z,17.20
2022-10-15T04:40:41.169Z,16.57
2022-10-15T04:43:11.816Z,13.60
2022-10-15T04:45:50.647Z,15.90
2022-10-15T04:48:20.964Z,18.30
2022-10-15T04:50:50.663Z,15.30
2022-10-15T04:53:20.645Z,18.23
2022-10-15T04:55:51.099Z,16.77
2022-10-15T04:58:19.342Z,15.27
2022-10-15T05:00:49.578Z,15.53
2022-10-15T05:03:20.945Z,16.60
2022-10-15T05:05:53.037Z,18.43
2022-10-15T05:08:21.068Z,15.57
2022-10-15T05:10:51.092Z,17.10
2022-10-15T05:13:18.773Z,19.57
2022-10-15T05:15:52.686Z,18.43
2022-10-15T05:18:31.147Z,18.30
2022-10-15T05:21:05.213Z,16.93
2022-10-15T05:23:37.308Z,15.67
2022-10-15T05:26:10.673Z,12.67
2022-10-15T05:28:41.517Z,14.23
2022-10-15T05:31:17.604Z,13.63
2022-10-15T05:33:57.280Z,13.33
2022-10-15T05:36:31.023Z,13.47
2022-10-15T05:39:00.982Z,13.47
2022-10-15T05:41:30.138Z,13.73
2022-10-15T05:43:59.578Z,12.40
2022-10-15T05:46:29.538Z,13.80
2022-10-15T05:48:58.586Z,13.23
2022-10-15T05:51:30.930Z,15.23
2022-10-15T05:54:00.799Z,17.73
2022-10-15T05:56:31.580Z,16.07
2022-10-15T05:59:01.265Z,15.07
2022-10-15T06:01:32.956Z,12.67
2022-10-15T06:04:01.221Z,12.10
2022-10-15T06:06:31.075Z,13.70
2022-10-15T06:09:02.681Z,14.20
2022-10-15T06:11:31.984Z,12.83
2022-10-15T06:14:01.345Z,14.10
2022-10-15T06:16:32.000Z,13.83
2022-10-15T06:19:00.857Z,16.20
2022-10-15T06:21:31.205Z,17.33
2022-10-15T06:24:05.147Z,19.50
2022-10-15T06:26:43.066Z,18.83
2022-10-15T06:29:11.533Z,19.13
2022-10-15T06:31:41.331Z,18.97
2022-10-15T06:34:08.997Z,23.20
2022-10-15T06:36:38.810Z,21.53
2022-10-15T06:39:06.488Z,23.47
2022-10-15T06:41:34.230Z,24.00
2022-10-15T06:44:01.896Z,26.30
2022-10-15T06:46:29.779Z,25.70
2022-10-15T06:48:57.483Z,24.93
2022-10-15T06:51:32.557Z,25.70
2022-10-15T06:54:02.653Z,26.87
2022-10-15T06:56:31.719Z,24.83
2022-10-15T06:59:02.280Z,24.77
2022-10-15T07:01:30.988Z,25.33
2022-10-15T07:04:01.510Z,25.30
2022-10-15T07:06:31.569Z,24.17
2022-10-15T07:09:10.424Z,21.57
2022-10-15T07:11:41.178Z,23.03
2022-10-15T07:14:12.117Z,19.57
2022-10-15T07:16:41.010Z,17.53
2022-10-15T07:19:11.958Z,17.67
2022-10-15T07:21:39.626Z,17.53
2022-10-15T07:24:08.863Z,19.30
2022-10-15T07:26:36.796Z,14.37
2022-10-15T07:29:05.149Z,17.73
2022-10-15T07:31:33.111Z,15.57
2022-10-15T07:34:00.928Z,15.17
2022-10-15T07:36:28.715Z,16.60
2022-10-15T07:38:56.544Z,16.07
2022-10-15T07:41:25.753Z,14.00
2022-10-15T07:43:53.757Z,15.63
2022-10-15T07:46:21.425Z,18.13
2022-10-15T07:48:49.064Z,17.17
2022-10-15T07:53:47.283Z,18.43
2022-10-15T07:56:16.792Z,17.10
2022-10-15T07:58:51.766Z,19.10
2022-10-15T08:01:21.371Z,20.47
2022-10-15T08:03:49.171Z,20.20
2022-10-15T08:06:16.859Z,22.53
2022-10-15T08:08:44.982Z,21.67
2022-10-15T08:11:14.546Z,20.87
2022-10-15T08:13:43.251Z,20.67
2022-10-15T08:16:17.122Z,22.23
2022-10-15T08:18:47.431Z,22.30
2022-10-15T08:21:21.864Z,22.63
2022-10-15T08:23:50.249Z,22.10
2022-10-15T08:26:19.091Z,21.43
2022-10-15T08:28:52.759Z,23.17
2022-10-15T08:31:21.873Z,19.67
2022-10-15T08:33:51.233Z,24.63
2022-10-15T08:36:22.129Z,24.37
2022-10-15T08:38:51.314Z,22.53
2022-10-15T08:41:32.507Z,20.40
2022-10-15T08:44:01.558Z,18.63
2022-10-15T08:46:39.838Z,20.53
2022-10-15T08:49:21.067Z,17.00
2022-10-15T08:51:53.576Z,16.80
2022-10-15T08:54:21.478Z,16.37
2022-10-15T08:57:03.537Z,15.50
2022-10-15T08:59:36.692Z,16.50
2022-10-15T09:02:14.770Z,14.93
2022-10-15T09:04:54.109Z,17.03
2022-10-15T09:07:31.699Z,15.60
2022-10-15T09:10:07.733Z,16.67
2022-10-15T09:12:47.341Z,15.40
2022-10-15T09:15:18.013Z,15.23
2022-10-15T09:17:50.109Z,13.93
2022-10-15T09:20:20.032Z,14.67
2022-10-15T09:22:51.773Z,16.97
2022-10-15T09:25:22.305Z,14.83
2022-10-15T09:27:52.145Z,12.93
2022-10-15T09:30:34.536Z,12.63
2022-10-15T09:33:10.693Z,13.23
2022-10-15T09:35:44.070Z,8.73
2022-10-15T09:38:28.876Z,8.40
2022-10-15T09:43:46.094Z,7.63
2022-10-15T09:46:14.264Z,7.53
2022-10-15T09:48:52.918Z,8.07
2022-10-15T09:51:28.986Z,7.83
2022-10-15T09:54:04.434Z,6.70
2022-10-15T09:56:37.752Z,7.20
2022-10-15T09:59:08.879Z,8.30
2022-10-15T10:01:37.488Z,9.40
2022-10-15T10:04:17.366Z,9.40
2022-10-15T10:06:47.534Z,8.70
2022-10-15T10:09:20.130Z,8.20
2022-10-15T10:11:53.221Z,7.23
2022-10-15T10:14:26.511Z,5.90
2022-10-15T10:17:17.254Z,5.33
2022-10-15T10:20:03.101Z,6.43
2022-10-15T10:22:30.793Z,6.27
2022-10-15T10:24:58.480Z,5.90
2022-10-15T10:27:30.381Z,6.50
2022-10-15T10:30:01.834Z,6.33
2022-10-15T10:32:32.366Z,5.33
2022-10-15T10:35:03.413Z,4.23
2022-10-15T10:37:43.568Z,5.00
2022-10-15T10:40:26.043Z,3.77
2022-10-15T10:43:12.827Z,4.30
2022-10-15T10:45:40.494Z,3.97
2022-10-15T10:48:27.362Z,4.33
2022-10-15T10:51:09.668Z,4.87
2022-10-15T10:53:47.438Z,3.90
2022-10-15T10:56:15.826Z,5.67
2022-10-15T10:58:43.711Z,5.43
2022-10-15T11:01:14.367Z,4.10
2022-10-15T11:03:43.931Z,3.97
2022-10-15T11:06:44.232Z,5.80
2022-10-15T11:09:21.849Z,4.20
2022-10-15T11:12:02.463Z,5.37
2022-10-15T11:14:40.194Z,6.20
2022-10-15T11:17:15.661Z,6.57
2022-10-15T11:20:12.327Z,5.03
2022-10-15T11:22:53.322Z,4.57
2022-10-15T11:25:34.157Z,4.63
2022-10-15T11:28:15.248Z,4.43
2022-10-15T11:30:52.880Z,4.83
2022-10-15T11:33:38.473Z,5.00
2022-10-15T11:36:23.042Z,5.90
2022-10-15T11:39:01.148Z,6.50
2022-10-15T11:41:40.760Z,6.30
2022-10-15T11:44:25.175Z,4.80
2022-10-15T11:47:05.068Z,5.13
2022-10-15T11:49:42.479Z,4.50
2022-10-15T11:52:26.863Z,5.73
2022-10-15T11:55:03.477Z,3.83
2022-10-15T11:57:36.250Z,4.37
2022-10-15T12:00:11.044Z,3.50
2022-10-15T12:02:39.851Z,4.33
2022-10-15T12:05:10.019Z,3.77
2022-10-15T12:07:42.251Z,4.40
2022-10-15T12:10:29.149Z,4.90
2022-10-15T12:13:07.314Z,4.27
2022-10-15T12:15:43.834Z,3.90
2022-10-15T12:18:21.440Z,3.77
2022-10-15T12:20:49.221Z,3.87
2022-10-15T12:23:39.957Z,3.83
2022-10-15T12:26:29.252Z,4.20
2022-10-15T12:29:02.346Z,3.10
2022-10-15T12:31:51.759Z,3.30
2022-10-15T12:34:29.394Z,2.87
2022-10-15T12:37:09.244Z,3.27
2022-10-15T12:39:51.736Z,2.80
2022-10-15T12:42:27.371Z,3.20
2022-10-15T12:44:58.429Z,3.83
2022-10-15T12:47:48.427Z,3.07
2022-10-15T12:50:20.141Z,3.80
2022-10-15T12:52:59.662Z,3.03
2022-10-15T12:55:32.961Z,4.70
2022-10-15T12:58:06.753Z,2.47
2022-10-15T13:00:44.162Z,2.20
2022-10-15T13:03:38.970Z,1.00
2022-10-15T13:06:26.144Z,3.90
2022-10-15T13:08:58.161Z,1.90
2022-10-15T13:11:30.004Z,0.70
2022-10-15T13:14:01.232Z,0.53
2022-10-15T13:16:31.574Z,0.97
2022-10-15T13:19:00.320Z,1.77
2022-10-15T13:21:49.993Z,1.60
2022-10-15T13:24:20.742Z,2.33
2022-10-15T13:26:50.439Z,0.40
2022-10-15T13:29:20.027Z,1.73
2022-10-15T13:31:49.332Z,1.03
2022-10-15T13:34:33.810Z,1.90
2022-10-15T13:37:03.910Z,0.73
2022-10-15T13:42:15.340Z,5.47
2022-10-15T13:44:44.311Z,1.80
2022-10-15T13:47:27.897Z,1.30
2022-10-15T13:50:14.096Z,2.53
2022-10-15T13:52:43.442Z,0.73
2022-10-15T13:55:19.991Z,1.70
2022-10-15T13:57:48.725Z,1.60
2022-10-15T14:00:26.940Z,1.73
2022-10-15T14:03:22.291Z,1.90
2022-10-15T14:05:51.641Z,3.57
2022-10-15T14:08:25.899Z,3.20
2022-10-15T14:10:55.631Z,3.73
2022-10-15T14:13:23.674Z,2.77
2022-10-15T14:16:00.513Z,0.47
2022-10-15T14:18:36.440Z,3.27
2022-10-15T14:21:05.408Z,2.83
2022-10-15T14:23:33.239Z,2.53
2022-10-15T14:26:03.254Z,0.60
2022-10-15T14:28:33.759Z,2.20
2022-10-15T14:31:02.985Z,0.70
2022-10-15T14:33:43.732Z,1.63
2022-10-15T14:36:26.624Z,1.70
2022-10-15T14:38:56.138Z,3.40
2022-10-15T14:41:30.290Z,2.37
2022-10-15T14:44:03.992Z,0.97
2022-10-15T14:46:39.654Z,3.33
2022-10-15T14:49:23.327Z,1.27
2022-10-15T14:51:56.687Z,1.93
2022-10-15T14:54:31.142Z,1.40
2022-10-15T14:56:59.219Z,1.80
2022-10-15T14:59:32.543Z,0.60
2022-10-15T15:02:03.227Z,1.70
2022-10-15T15:04:41.177Z,1.77
2022-10-15T15:07:20.721Z,1.80
2022-10-15T15:09:52.747Z,1.67
2022-10-15T15:12:26.942Z,3.30
2022-10-15T15:14:56.404Z,2.70
2022-10-15T15:17:26.498Z,3.17
2022-10-15T15:19:57.141Z,1.20
2022-10-15T15:22:29.236Z,3.27
2022-10-15T15:24:58.995Z,1.30
2022-10-15T15:27:30.581Z,3.80
2022-10-15T15:29:59.153Z,5.70
2022-10-15T15:32:27.191Z,1.17
2022-10-15T15:34:58.778Z,1.93
2022-10-15T15:37:27.517Z,1.23
2022-10-15T15:39:56.307Z,1.17
2022-10-15T15:42:25.875Z,4.40
2022-10-15T15:44:53.796Z,2.63
2022-10-15T15:47:21.484Z,3.60
2022-10-15T15:49:49.240Z,4.77
2022-10-15T15:52:18.974Z,1.80
2022-10-15T15:54:47.093Z,3.00
2022-10-15T15:57:15.532Z,4.37
2022-10-15T15:59:43.332Z,3.33
2022-10-15T16:02:12.790Z,7.33
2022-10-15T16:04:40.440Z,3.70
2022-10-15T16:07:10.374Z,2.00
2022-10-15T16:09:42.650Z,6.90
2022-10-15T16:12:10.286Z,6.17
2022-10-15T16:14:37.925Z,6.70
2022-10-15T16:17:05.906Z,3.47
2022-10-15T16:19:33.677Z,5.33
2022-10-15T16:22:01.323Z,2.33
2022-10-15T16:24:28.970Z,5.17
2022-10-15T16:26:57.983Z,4.07
2022-10-15T16:29:25.663Z,3.30
2022-10-15T16:31:53.294Z,7.30
2022-10-15T16:34:20.936Z,5.27
2022-10-15T16:36:48.771Z,4.67
2022-10-15T16:39:16.416Z,6.70
2022-10-15T16:41:44.066Z,3.77
2022-10-15T16:44:13.108Z,7.73
2022-10-15T16:46:40.781Z,8.03
2022-10-15T16:49:08.566Z,3.90
2022-10-15T16:51:38.584Z,8.47
2022-10-15T16:54:11.465Z,6.03
2022-10-15T16:56:39.298Z,4.13
2022-10-15T16:59:07.011Z,3.83
2022-10-15T17:01:36.762Z,4.93
2022-10-15T17:04:04.701Z,3.90
2022-10-15T17:06:32.528Z,4.00
2022-10-15T17:09:03.518Z,4.73
2022-10-15T17:11:34.679Z,2.27
2022-10-15T17:14:04.809Z,4.50
2022-10-15T17:16:34.395Z,3.60
2022-10-15T17:19:03.877Z,2.73
2022-10-15T17:21:32.576Z,5.23
2022-10-15T17:24:02.514Z,4.17
2022-10-15T17:26:33.287Z,3.33
2022-10-15T17:29:01.854Z,5.13
2022-10-15T17:31:29.909Z,6.63
2022-10-15T17:34:00.649Z,3.63
2022-10-15T17:36:31.290Z,5.43
2022-10-15T17:39:00.019Z,6.67
2022-10-15T17:41:29.242Z,2.27
2022-10-15T17:43:57.454Z,7.13
2022-10-15T17:46:27.026Z,4.83
2022-10-15T17:48:55.597Z,1.60
2022-10-15T17:51:25.399Z,5.67
2022-10-15T17:53:54.940Z,3.17
2022-10-15T17:56:24.337Z,3.63
2022-10-15T17:58:52.159Z,5.03
2022-10-15T18:01:33.468Z,3.57
2022-10-15T18:04:07.969Z,5.33
2022-10-15T18:06:35.641Z,2.40
2022-10-15T18:09:04.704Z,3.23
2022-10-15T18:11:34.748Z,4.30
2022-10-15T18:14:02.676Z,2.27
2022-10-15T18:16:30.430Z,3.43
2022-10-15T18:18:58.545Z,9.83
2022-10-15T18:21:27.413Z,3.20
2022-10-15T18:23:56.449Z,2.73
2022-10-15T18:26:26.048Z,2.87
2022-10-15T18:28:55.418Z,8.20
2022-10-15T18:31:26.149Z,3.67
2022-10-15T18:33:56.200Z,4.73
2022-10-15T18:36:26.211Z,1.77
2022-10-15T18:38:54.530Z,3.57
2022-10-15T18:41:23.841Z,3.10
2022-10-15T18:43:54.116Z,4.20
2022-10-15T18:46:21.835Z,2.87
2022-10-15T18:48:50.155Z,2.93
2022-10-15T18:51:18.690Z,3.90
2022-10-15T18:53:46.555Z,3.87
2022-10-15T18:56:14.859Z,1.93
2022-10-15T18:58:43.723Z,3.73
2022-10-15T19:01:14.925Z,5.03
2022-10-15T19:03:42.675Z,4.00
2022-10-15T19:06:10.316Z,9.07
2022-10-15T19:08:38.049Z,3.30
2022-10-15T19:11:08.482Z,3.00
2022-10-15T19:13:36.283Z,5.90
2022-10-15T19:16:05.095Z,2.57
2022-10-15T19:18:36.457Z,2.70
2022-10-15T19:21:04.545Z,2.17
2022-10-15T19:23:32.658Z,3.70
2022-10-15T19:26:00.316Z,1.30
2022-10-15T19:28:28.924Z,2.97
2022-10-15T19:30:59.128Z,3.73
2022-10-15T19:33:28.365Z,4.83
2022-10-15T19:35:57.513Z,2.87
2022-10-15T19:38:26.561Z,4.27
2022-10-15T19:40:54.839Z,2.23
2022-10-15T19:43:23.676Z,4.10
2022-10-15T19:45:51.412Z,3.17
2022-10-15T19:48:23.005Z,3.40
2022-10-15T19:50:50.960Z,1.40
2022-10-15T19:53:19.965Z,2.67
2022-10-15T19:55:56.937Z,3.40
2022-10-15T19:58:24.956Z,3.53
2022-10-15T20:00:53.619Z,2.20
2022-10-15T20:03:22.703Z,5.60
2022-10-15T20:05:50.397Z,2.53
2022-10-15T20:08:18.616Z,2.10
2022-10-15T20:10:51.209Z,3.00
2022-10-15T20:13:20.644Z,5.03
2022-10-15T20:15:50.447Z,3.37
2022-10-15T20:18:19.434Z,2.37
2022-10-15T20:20:48.211Z,2.67
2022-10-15T20:23:17.306Z,4.37
2022-10-15T20:25:47.479Z,3.00
2022-10-15T20:28:18.199Z,2.87
2022-10-15T20:30:47.227Z,2.10
2022-10-15T20:33:15.181Z,3.17
2022-10-15T20:35:43.203Z,3.23
2022-10-15T20:38:10.897Z,4.57
2022-10-15T20:40:41.347Z,4.03
2022-10-15T20:43:10.594Z,3.03
2022-10-15T20:45:45.726Z,2.43
2022-10-15T20:48:23.626Z,1.33
2022-10-15T20:50:53.001Z,2.77
2022-10-15T20:53:22.749Z,4.70
2022-10-15T20:55:51.006Z,3.57
2022-10-15T20:58:20.069Z,7.67
2022-10-15T21:00:47.858Z,2.70
2022-10-15T21:03:15.504Z,1.10
2022-10-15T21:05:43.343Z,1.77
2022-10-15T21:08:11.017Z,3.90
2022-10-15T21:10:38.694Z,2.87
2022-10-15T21:13:06.427Z,2.47
2022-10-15T21:15:35.709Z,3.37
2022-10-15T21:18:03.399Z,3.63
2022-10-15T21:20:31.249Z,2.80
2022-10-15T21:22:58.869Z,2.13
2022-10-15T21:25:26.726Z,2.83
2022-10-15T21:27:54.403Z,3.30
2022-10-15T21:30:22.119Z,2.00
2022-10-15T21:32:51.143Z,2.67
2022-10-15T21:35:18.840Z,2.30
2022-10-15T21:37:46.499Z,1.43
2022-10-15T21:40:14.285Z,3.50
2022-10-15T21:42:41.963Z,1.27
2022-10-15T21:45:11.088Z,1.20
2022-10-15T21:47:38.761Z,1.17
2022-10-15T21:50:08.439Z,1.90
2022-10-15T21:52:36.085Z,1.80
2022-10-15T21:55:04.436Z,1.80
2022-10-15T21:57:33.691Z,1.07
2022-10-15T22:00:01.489Z,2.07
2022-10-15T22:02:29.118Z,0.67
2022-10-15T22:04:56.877Z,2.93
2022-10-15T22:07:26.243Z,2.07
2022-10-15T22:09:55.209Z,4.67
2022-10-15T22:12:23.159Z,0.60
2022-10-15T22:14:50.951Z,1.93
2022-10-15T22:17:20.054Z,2.27
2022-10-15T22:19:47.737Z,2.97
2022-10-15T22:22:15.527Z,0.93
2022-10-15T22:24:44.556Z,3.13
2022-10-15T22:27:12.683Z,1.03
2022-10-15T22:29:41.109Z,1.27
2022-10-15T22:32:08.922Z,2.57
2022-10-15T22:34:36.749Z,4.07
2022-10-15T22:37:04.436Z,2.13
2022-10-15T22:39:32.078Z,2.60
2022-10-15T22:42:01.136Z,3.80
2022-10-15T22:44:28.995Z,1.87
2022-10-15T22:46:56.654Z,6.50
2022-10-15T22:49:25.485Z,2.10
2022-10-15T22:51:53.398Z,1.40
2022-10-15T22:54:23.191Z,1.93
2022-10-15T22:56:51.815Z,3.27
2022-10-15T22:59:21.431Z,4.73
2022-10-15T23:01:49.188Z,1.07
2022-10-15T23:04:16.946Z,4.83
2022-10-15T23:06:44.821Z,3.03
2022-10-15T23:09:17.381Z,3.20
2022-10-15T23:11:45.928Z,2.30
2022-10-15T23:14:15.826Z,1.60
2022-10-15T23:16:46.963Z,1.13
2022-10-15T23:19:17.350Z,2.40
2022-10-15T23:21:46.796Z,2.10
2022-10-15T23:24:14.998Z,3.03
2022-10-15T23:26:43.068Z,2.37
2022-10-15T23:29:15.052Z,2.03
2022-10-15T23:31:44.551Z,1.97
2022-10-15T23:34:15.379Z,1.63
2022-10-15T23:36:43.726Z,1.17
2022-10-15T23:39:14.389Z,2.23
2022-10-15T23:41:42.849Z,2.10
2022-10-15T23:44:10.827Z,1.13
2022-10-15T23:46:38.895Z,3.93
2022-10-15T23:49:08.701Z,1.83
2022-10-15T23:51:37.048Z,2.30
2022-10-15T23:54:13.583Z,1.77
2022-10-15T23:56:41.629Z,1.50
2022-10-15T23:59:09.366Z,2.60
